Time;durP1;ratioP1;P1;durP2;ratioP2;P2;SDS_P1;SDS_P2;PMS_P1;PMS_P2;Temp;Humidity;BMP_temperature;BMP_pressure;BME280_temperature;BME280_humidity;BME280_pressure;Samples;Min_cycle;Max_cycle;Signal;HPM_P1;HPM_P2
2022/11/21 05:05:08;;;;;;;25.88;14.13;;;;;;;2.98;79.60;99805.09;5606473;31;76898;-54
2022/11/21 05:08:11;;;;;;;27.80;15.32;;;;;;;2.98;79.60;99805.09;5603843;31;34008;-54
2022/11/21 05:14:34;;;;;;;22.58;14.13;;;;;;;2.69;79.62;99815.00;5600825;31;33519;-54
2022/11/21 05:17:36;;;;;;;23.00;14.07;;;;;;;2.64;80.76;99814.91;5598867;31;32148;-54
2022/11/21 05:20:38;;;;;;;25.02;15.68;;;;;;;2.82;80.33;99813.88;5603487;31;33233;-55
2022/11/21 05:23:40;;;;;;;28.65;17.17;;;;;;;3.00;80.23;99818.87;5602571;31;33820;-55
2022/11/21 05:26:43;;;;;;;46.88;22.90;;;;;;;2.96;84.24;99812.47;5600581;31;34241;-55
2022/11/21 05:29:45;;;;;;;46.88;28.73;;;;;;;2.96;97.42;99819.63;5601902;31;34342;-55
2022/11/21 05:32:47;;;;;;;72.55;27.75;;;;;;;2.94;90.52;99811.09;5602428;31;33201;-54
2022/11/21 05:35:49;;;;;;;67.03;28.67;;;;;;;3.21;85.54;99798.78;5602443;31;33681;-55
2022/11/21 05:38:51;;;;;;;60.42;27.02;;;;;;;3.23;85.01;99801.16;5601495;31;33413;-55
2022/11/21 05:41:54;;;;;;;104.57;26.92;;;;;;;3.42;84.20;99797.16;5594435;31;33698;-55
2022/11/21 05:45:04;;;;;;;57.85;25.75;;;;;;;3.26;84.30;99793.53;5578286;31;33626;-55
2022/11/21 05:48:06;;;;;;;72.25;25.83;;;;;;;3.24;84.34;99798.25;5578922;32;33605;-54
2022/11/21 05:51:10;;;;;;;63.63;24.52;;;;;;;3.43;83.03;99792.66;5575896;32;33967;-54
2022/11/21 05:54:13;;;;;;;50.25;23.80;;;;;;;3.28;83.33;99793.31;5570852;31;33699;-55
2022/11/21 05:57:15;;;;;;;54.88;23.70;;;;;;;3.27;86.01;99786.38;5568733;32;33724;-54
2022/11/21 06:00:18;;;;;;;61.08;24.17;;;;;;;3.30;83.23;99789.34;5568816;32;34129;-55
2022/11/21 06:03:26;;;;;;;62.45;22.42;;;;;;;3.21;83.74;99796.13;5569777;32;33640;-54
2022/11/21 06:06:28;;;;;;;56.80;21.90;;;;;;;3.17;82.78;99794.19;5575101;32;34210;-54
2022/11/21 06:09:30;;;;;;;37.47;21.58;;;;;;;3.05;83.24;99799.62;5573743;31;33723;-54
2022/11/21 06:12:32;;;;;;;40.15;21.75;;;;;;;3.04;91.78;99793.50;5574520;31;33736;-55
2022/11/21 06:15:36;;;;;;;36.88;19.92;;;;;;;3.03;87.23;99799.06;5566951;32;34177;-55
2022/11/21 06:18:42;;;;;;;52.03;20.42;;;;;;;3.03;91.24;99805.16;5555889;32;33603;-54
2022/11/21 06:21:44;;;;;;;37.45;21.15;;;;;;;3.34;100.00;99799.44;5550596;32;34318;-55
2022/11/21 06:24:46;;;;;;;51.90;18.30;;;;;;;3.22;90.53;99799.56;5550990;32;33557;-56
2022/11/21 06:27:48;;;;;;;53.38;19.90;;;;;;;3.13;85.19;99798.41;5551144;32;33441;-55
2022/11/21 06:30:51;;;;;;;40.20;19.83;;;;;;;3.21;88.47;99801.44;5561050;32;33747;-54
2022/11/21 06:33:57;;;;;;;30.55;18.33;;;;;;;2.94;83.99;99803.16;5558696;32;33973;-54
2022/11/21 06:36:59;;;;;;;34.15;19.17;;;;;;;3.00;82.08;99807.47;5557188;32;34288;-55
2022/11/21 06:40:02;;;;;;;42.03;19.58;;;;;;;2.94;83.07;99813.75;5552861;32;33561;-54
2022/11/21 06:43:04;;;;;;;35.42;20.67;;;;;;;3.03;86.88;99807.00;5554865;31;33890;-55
2022/11/21 06:46:07;;;;;;;37.92;20.88;;;;;;;2.97;83.24;99816.72;5555280;32;33866;-55
2022/11/21 06:49:10;;;;;;;34.97;18.12;;;;;;;2.83;86.12;99815.47;5554615;32;33661;-55
2022/11/21 06:52:13;;;;;;;45.08;19.58;;;;;;;2.98;85.24;99822.81;5562903;31;33688;-55
2022/11/21 06:55:15;;;;;;;44.17;18.75;;;;;;;3.03;86.55;99821.03;5553956;32;34201;-54
2022/11/21 06:58:17;;;;;;;35.28;20.45;;;;;;;2.99;94.39;99829.72;5565402;32;34288;-54
2022/11/21 07:01:19;;;;;;;49.80;19.37;;;;;;;3.02;86.86;99843.28;5563365;32;33594;-54
2022/11/21 07:04:22;;;;;;;41.53;17.98;;;;;;;3.22;88.44;99842.75;5550425;32;33591;-54
2022/11/21 07:07:24;;;;;;;46.13;19.98;;;;;;;3.35;86.14;99846.09;5555692;32;33845;-55
2022/11/21 07:10:28;;;;;;;35.00;18.60;;;;;;;3.51;96.29;99848.69;5566268;32;34490;-54
2022/11/21 07:13:31;;;;;;;35.35;19.92;;;;;;;3.52;90.22;99850.28;5567437;32;33639;-54
2022/11/21 07:16:33;;;;;;;37.97;18.15;;;;;;;3.68;85.18;99847.84;5563694;32;33712;-55
2022/11/21 07:19:36;;;;;;;44.72;18.87;;;;;;;3.70;87.47;99846.53;5563834;32;34400;-54
2022/11/21 07:22:42;;;;;;;29.87;17.55;;;;;;;3.64;85.09;99844.06;5564366;32;33584;-55
2022/11/21 07:25:44;;;;;;;31.98;19.30;;;;;;;3.63;89.31;99837.97;5566129;32;34307;-54
2022/11/21 07:28:47;;;;;;;30.08;18.20;;;;;;;3.63;86.25;99835.31;5564590;32;34225;-55
2022/11/21 07:31:49;;;;;;;31.85;19.17;;;;;;;3.98;95.50;99840.22;5551409;32;34485;-54
2022/11/21 07:34:51;;;;;;;28.95;18.17;;;;;;;3.88;88.89;99837.47;5549446;32;33589;-55
2022/11/21 07:37:53;;;;;;;30.00;18.50;;;;;;;3.96;86.21;99842.31;5552659;32;33682;-54
2022/11/21 07:40:56;;;;;;;29.10;17.80;;;;;;;4.02;88.47;99845.03;5552764;31;33652;-55
2022/11/21 07:43:58;;;;;;;27.87;17.65;;;;;;;3.87;87.21;99843.78;5565259;32;33839;-55
2022/11/21 07:47:00;;;;;;;27.90;18.58;;;;;;;4.02;88.67;99837.84;5567487;31;33633;-55
2022/11/21 07:50:04;;;;;;;30.73;19.15;;;;;;;4.00;92.46;99840.75;5562686;32;33371;-54
2022/11/21 07:53:10;;;;;;;26.85;17.50;;;;;;;3.99;87.79;99848.97;5551993;32;33596;-55
2022/11/21 07:56:12;;;;;;;29.33;17.40;;;;;;;4.09;88.06;99854.38;5548890;32;33612;-55
2022/11/21 07:59:14;;;;;;;27.48;17.00;;;;;;;4.26;86.69;99858.78;5557136;31;34284;-55
2022/11/21 08:02:23;;;;;;;28.58;19.27;;;;;;;4.23;89.00;99858.22;5564547;31;33326;-55
2022/11/21 08:05:25;;;;;;;25.55;16.90;;;;;;;4.27;85.19;99858.50;5554886;32;33269;-55
2022/11/21 08:08:27;;;;;;;29.75;18.33;;;;;;;4.20;85.83;99863.22;5557448;31;33280;-55
2022/11/21 08:11:31;;;;;;;29.15;18.55;;;;;;;4.24;85.23;99861.69;5555695;31;33632;-55
2022/11/21 08:14:33;;;;;;;28.15;17.48;;;;;;;4.64;98.79;99868.41;5553802;31;33611;-55
2022/11/21 08:17:36;;;;;;;27.00;16.95;;;;;;;4.38;89.58;99875.34;5560315;31;33774;-54
2022/11/21 08:20:38;;;;;;;31.12;18.98;;;;;;;4.51;86.32;99872.28;5558083;31;33623;-55
2022/11/21 08:23:41;;;;;;;31.42;19.40;;;;;;;4.68;85.15;99870.31;5561699;31;33669;-55
2022/11/21 08:26:44;;;;;;;32.70;20.15;;;;;;;4.70;87.29;99870.03;5555337;31;33552;-55
2022/11/21 08:29:46;;;;;;;31.98;20.27;;;;;;;4.83;87.58;99871.47;5562572;32;34366;-54
2022/11/21 08:32:51;;;;;;;31.00;18.52;;;;;;;4.85;89.24;99872.81;5561450;32;33369;-54
2022/11/21 08:35:53;;;;;;;29.20;18.80;;;;;;;4.97;85.87;99879.78;5559712;31;33559;-55
2022/11/21 08:38:55;;;;;;;36.42;21.02;;;;;;;5.00;85.40;99877.47;5557832;32;33756;-55
2022/11/21 08:42:04;;;;;;;32.67;19.50;;;;;;;5.45;100.00;99872.66;5554770;31;33563;-56
2022/11/21 08:45:06;;;;;;;30.55;19.90;;;;;;;5.15;86.61;99882.84;5550656;31;33596;-55
2022/11/21 08:48:10;;;;;;;32.25;21.08;;;;;;;5.15;85.67;99880.19;5557507;31;33622;-56
2022/11/21 08:51:12;;;;;;;33.83;21.60;;;;;;;5.08;84.80;99886.78;5555298;32;32129;-55
2022/11/21 08:54:20;;;;;;;38.03;24.40;;;;;;;5.05;96.91;99884.66;5555766;32;34290;-55
2022/11/21 08:57:23;;;;;;;40.40;26.25;;;;;;;5.47;97.54;99884.63;5558818;32;33547;-55
2022/11/21 09:00:26;;;;;;;41.72;26.62;;;;;;;5.46;98.32;99879.56;5555278;32;34192;-54
2022/11/21 09:03:28;;;;;;;44.63;28.70;;;;;;;5.45;100.00;99884.09;5550300;32;33590;-56
2022/11/21 09:06:33;;;;;;;56.60;34.42;;;;;;;5.89;100.00;99878.41;5552380;32;32084;-54
2022/11/21 09:09:35;;;;;;;49.67;32.95;;;;;;;6.07;94.42;99880.63;5550764;31;34300;-54
2022/11/21 09:12:37;;;;;;;55.63;34.80;;;;;;;6.36;100.00;99880.19;5556062;31;33255;-56
2022/11/21 09:19:00;;;;;;;53.58;32.30;;;;;;;6.10;88.27;99882.78;5549122;31;33722;-55
2022/11/21 09:22:02;;;;;;;53.83;33.30;;;;;;;6.24;94.21;99877.75;5544974;32;33686;-55
2022/11/21 09:25:05;;;;;;;55.83;34.83;;;;;;;6.08;81.70;99881.44;5550321;32;34280;-56
2022/11/21 09:28:09;;;;;;;53.15;32.30;;;;;;;5.83;86.32;99868.84;5545575;31;33992;-55
2022/11/21 09:31:11;;;;;;;51.65;29.85;;;;;;;5.89;99.08;99875.75;5553579;32;34385;-55
2022/11/21 09:34:13;;;;;;;54.42;36.63;;;;;;;5.85;94.94;99864.84;5559480;31;33654;-55
2022/11/21 09:37:16;;;;;;;59.20;34.90;;;;;;;6.08;90.47;99863.59;5555439;31;32451;-56
2022/11/21 09:40:18;;;;;;;61.30;36.38;;;;;;;5.99;82.09;99864.37;5561185;32;32348;-55
2022/11/21 09:43:45;;;;;;;59.08;36.67;;;;;;;5.81;82.12;99863.75;5549207;32;33652;-57
2022/11/21 09:47:02;;;;;;;59.17;37.08;;;;;;;6.20;98.03;99874.03;5551250;32;34279;-55
2022/11/21 09:50:23;;;;;;;62.90;37.63;;;;;;;6.04;94.76;99873.19;5553391;31;33562;-55
2022/11/21 09:53:31;;;;;;;31.33;20.08;;;;;;;6.09;83.43;99869.72;5555822;31;33578;-55
2022/11/21 09:56:38;;;;;;;59.47;34.08;;;;;;;6.19;97.86;99875.09;5558710;32;33774;-55
2022/11/21 09:59:42;;;;;;;29.80;19.70;;;;;;;6.29;92.51;99871.63;5555743;31;33456;-54
2022/11/21 10:02:44;;;;;;;29.00;20.15;;;;;;;6.27;92.39;99873.75;5549075;32;33791;-55
2022/11/21 10:06:02;;;;;;;51.25;29.58;;;;;;;5.97;82.75;99869.97;5563591;32;34308;-55
2022/11/21 10:09:04;;;;;;;;;;;;;;;5.94;82.04;99859.06;5560927;31;34338;-55
2022/11/21 10:12:37;;;;;;;44.22;26.90;;;;;;;6.15;87.09;99870.53;5558454;31;34600;-56
2022/11/21 10:15:50;;;;;;;37.30;24.45;;;;;;;6.45;83.52;99880.44;5566576;32;33764;-54
2022/11/21 10:19:14;;;;;;;39.75;25.35;;;;;;;6.46;95.78;99868.75;5566765;32;33651;-55
2022/11/21 10:22:38;;;;;;;43.13;26.50;;;;;;;6.34;79.39;99868.97;5560325;31;33236;-55
2022/11/21 10:25:53;;;;;;;51.78;30.00;;;;;;;6.20;82.65;99860.72;5563963;32;33874;-55
2022/11/21 10:29:09;;;;;;;51.47;30.62;;;;;;;6.39;87.99;99858.34;5552516;32;34397;-55
2022/11/21 10:32:18;;;;;;;;;;;;;;;6.66;89.73;99854.63;5565483;32;34361;-54
2022/11/21 10:35:28;;;;;;;49.83;30.60;;;;;;;6.83;95.57;99847.94;5560691;31;34027;-54
2022/11/21 10:38:36;;;;;;;55.90;32.00;;;;;;;7.03;93.99;99841.78;5563629;31;33660;-55
2022/11/21 10:41:54;;;;;;;55.47;31.98;;;;;;;7.12;97.36;99839.38;5562502;32;34221;-55
2022/11/21 10:45:15;;;;;;;52.40;29.60;;;;;;;6.95;87.36;99831.66;5551252;31;33254;-56
2022/11/21 10:48:17;;;;;;;48.65;30.20;;;;;;;7.11;89.96;99828.97;5560152;31;33742;-54
2022/11/21 10:51:37;;;;;;;52.65;30.83;;;;;;;6.91;85.92;99835.16;5563863;32;34480;-55
2022/11/21 10:55:02;;;;;;;47.95;29.17;;;;;;;6.77;84.47;99829.56;5561766;31;33672;-56
2022/11/21 10:58:16;;;;;;;50.88;30.55;;;;;;;7.12;91.82;99822.56;5564874;32;33571;-56
2022/11/21 11:01:27;;;;;;;42.33;28.75;;;;;;;6.83;78.04;99825.84;5560922;32;33681;-55
2022/11/21 11:04:30;;;;;;;49.90;30.48;;;;;;;6.92;77.28;99832.22;5566844;32;33453;-56
2022/11/21 11:08:11;;;;;;;53.92;31.42;;;;;;;6.88;77.48;99823.16;5559243;32;34319;-55
2022/11/21 11:11:14;;;;;;;54.65;28.95;;;;;;;6.80;80.05;99835.16;5558872;32;32799;-55
2022/11/21 11:14:31;;;;;;;54.70;31.15;;;;;;;6.84;77.96;99827.44;5559642;32;33675;-55
2022/11/21 11:17:33;;;;;;;51.85;29.65;;;;;;;6.74;80.19;99827.44;5565488;32;34441;-55
2022/11/21 11:20:42;;;;;;;58.90;31.75;;;;;;;6.73;79.93;99834.66;5553037;31;33679;-55
2022/11/21 11:23:46;;;;;;;52.45;30.40;;;;;;;6.79;80.26;99819.47;5560861;31;33766;-55
2022/11/21 11:26:49;;;;;;;52.20;31.83;;;;;;;6.74;78.53;99820.25;5563616;31;34299;-55
2022/11/21 11:29:52;;;;;;;54.30;32.00;;;;;;;6.70;80.08;99818.41;5563679;31;33648;-56
2022/11/21 11:32:54;;;;;;;50.20;30.75;;;;;;;6.64;80.40;99817.59;5561747;31;32100;-55
2022/11/21 11:36:15;;;;;;;58.97;31.12;;;;;;;6.70;79.33;99810.41;5566155;32;34507;-55
2022/11/21 11:39:31;;;;;;;55.03;28.98;;;;;;;6.95;77.48;99809.56;5564585;32;34276;-55
2022/11/21 11:50:38;;;;;;;42.72;25.73;;;;;;;7.36;92.91;99785.47;5564944;32;33668;-55
2022/11/21 11:53:49;;;;;;;41.63;25.62;;;;;;;7.39;78.29;99783.03;5497991;32;33774;-55
2022/11/21 11:56:52;;;;;;;45.50;28.50;;;;;;;7.27;79.33;99780.69;5558567;31;33716;-56
2022/11/21 12:00:22;;;;;;;49.13;29.00;;;;;;;7.32;78.50;99779.06;5560717;32;32945;-54
2022/11/21 12:03:36;;;;;;;47.05;29.20;;;;;;;7.54;88.07;99772.28;5559549;32;33880;-55
2022/11/21 12:06:51;;;;;;;44.90;28.15;;;;;;;7.42;84.50;99771.84;5555317;32;33378;-54
2022/11/21 12:10:23;;;;;;;53.90;31.10;;;;;;;7.61;89.04;99763.19;5549905;32;33315;-55
2022/11/21 12:13:27;;;;;;;52.30;30.42;;;;;;;7.50;85.59;99757.13;5557512;32;33775;-56
2022/11/21 12:16:30;;;;;;;48.15;28.95;;;;;;;7.53;82.15;99746.69;5551651;32;32008;-55
2022/11/21 12:19:34;;;;;;;52.42;31.40;;;;;;;7.58;95.48;99745.06;5549756;32;33673;-55
2022/11/21 12:22:36;;;;;;;46.95;30.02;;;;;;;7.57;81.97;99740.81;5547672;32;33629;-55
2022/11/21 12:25:50;;;;;;;46.17;28.08;;;;;;;7.65;89.13;99745.56;5550630;31;33653;-55
2022/11/21 12:29:05;;;;;;;43.03;27.35;;;;;;;7.53;85.86;99737.91;5550440;32;33757;-55
2022/11/21 12:32:18;;;;;;;40.63;28.35;;;;;;;7.65;83.99;99742.87;5548307;32;33597;-54
2022/11/21 12:35:27;;;;;;;41.53;27.70;;;;;;;7.65;89.67;99743.72;5548771;32;34439;-55
2022/11/21 12:38:46;;;;;;;45.28;27.45;;;;;;;7.76;83.03;99729.22;5549571;32;34336;-55
2022/11/21 12:45:33;;;;;;;35.95;21.60;;;;;;;7.87;92.81;99727.28;5547782;32;33683;-55
2022/11/21 12:55:38;;;;;;;24.27;18.17;;;;;;;8.29;89.21;99733.91;5555839;32;34082;-55
2022/11/21 12:58:47;;;;;;;25.40;17.37;;;;;;;8.43;88.81;99720.72;5548958;32;33903;-55
2022/11/21 13:02:17;;;;;;;25.83;17.67;;;;;;;8.28;78.54;99715.47;5550661;32;33741;-56
2022/11/21 13:05:27;;;;;;;25.77;17.90;;;;;;;8.24;77.75;99721.41;5567728;32;34249;-55
2022/11/21 13:08:35;;;;;;;27.45;18.30;;;;;;;8.04;77.55;99732.22;5568107;32;33948;-55
2022/11/21 13:12:02;;;;;;;26.33;20.00;;;;;;;7.93;80.46;99736.84;5568520;32;33917;-55
2022/11/21 13:15:20;;;;;;;40.25;30.70;;;;;;;7.88;77.81;99738.75;5568027;32;33702;-55
2022/11/21 13:18:45;;;;;;;36.80;29.42;;;;;;;7.85;78.58;99732.09;5568061;32;33729;-55
2022/11/21 13:21:53;;;;;;;35.00;24.75;;;;;;;7.79;78.35;99733.22;5568120;32;33734;-55
2022/11/21 13:24:57;;;;;;;28.48;21.15;;;;;;;7.75;78.89;99732.19;5568628;32;34360;-56
2022/11/21 13:28:17;;;;;;;24.67;16.12;;;;;;;7.97;86.35;99732.53;5570393;32;33505;-55
2022/11/21 13:31:27;;;;;;;22.13;14.00;;;;;;;7.98;77.45;99734.16;5570410;32;33908;-55
2022/11/21 13:34:37;;;;;;;19.50;14.45;;;;;;;8.04;77.49;99731.44;5570010;32;33369;-56
2022/11/21 13:37:48;;;;;;;19.80;12.77;;;;;;;7.90;75.88;99731.25;5575034;31;33707;-55
2022/11/21 13:44:29;;;;;;;17.33;11.63;;;;;;;7.95;77.40;99724.03;5551025;32;34411;-54
2022/11/21 13:47:49;;;;;;;17.75;12.82;;;;;;;7.86;75.58;99728.34;5551007;32;34634;-55
2022/11/21 13:51:19;;;;;;;16.87;12.45;;;;;;;7.73;75.64;99734.31;5551124;32;33702;-55
2022/11/21 13:54:41;;;;;;;21.87;18.00;;;;;;;7.71;75.75;99741.78;5550871;32;34112;-55
2022/11/21 13:57:51;;;;;;;24.17;20.67;;;;;;;7.80;76.72;99742.81;5551055;32;33752;-55
2022/11/21 14:01:02;;;;;;;20.80;14.05;;;;;;;7.92;77.15;99745.94;5559903;32;33738;-55
2022/11/21 14:04:23;;;;;;;24.37;19.20;;;;;;;7.75;76.62;99753.53;5569592;32;33271;-55
2022/11/21 14:07:29;;;;;;;32.75;27.15;;;;;;;7.86;91.26;99755.03;5568948;32;34428;-55
2022/11/21 14:10:32;;;;;;;;;;;;;;;7.84;78.74;99738.50;5570580;32;33595;-55
2022/11/21 14:13:37;;;;;;;23.80;20.08;;;;;;;7.80;80.17;99752.69;5570699;32;34135;-55
2022/11/21 14:16:47;;;;;;;20.77;15.77;;;;;;;7.64;88.15;99743.97;5569122;32;33754;-55
2022/11/21 14:19:53;;;;;;;23.73;14.02;;;;;;;7.57;79.08;99752.28;5569293;31;33755;-55
2022/11/21 14:22:57;;;;;;;21.70;15.00;;;;;;;7.43;79.60;99740.63;5570169;32;34475;-54
2022/11/21 14:26:02;;;;;;;21.90;13.57;;;;;;;7.34;80.00;99737.72;5570071;32;33619;-54
2022/11/21 14:29:36;;;;;;;17.20;13.80;;;;;;;7.34;86.25;99736.94;5569766;32;34420;-55
2022/11/21 14:32:39;;;;;;;19.45;13.27;;;;;;;7.35;81.15;99731.34;5568729;32;33746;-54
2022/11/21 14:35:47;;;;;;;18.95;13.35;;;;;;;7.29;81.07;99733.22;5569533;32;33979;-55
2022/11/21 14:38:50;;;;;;;16.80;12.37;;;;;;;7.27;80.89;99737.22;5570028;32;33731;-55
2022/11/21 14:42:15;;;;;;;18.08;12.88;;;;;;;7.22;80.43;99748.72;5569841;32;33790;-55
2022/11/21 14:45:20;;;;;;;20.15;13.07;;;;;;;7.16;80.32;99751.69;5570048;32;33459;-55
2022/11/21 14:48:29;;;;;;;17.85;13.10;;;;;;;7.06;81.83;99757.84;5569021;32;33769;-55
2022/11/21 14:51:31;;;;;;;23.60;16.58;;;;;;;7.15;82.86;99752.72;5569600;32;34234;-55
2022/11/21 14:54:50;;;;;;;19.35;14.55;;;;;;;7.00;85.79;99756.25;5569770;32;33419;-55
2022/11/21 14:58:14;;;;;;;19.17;15.07;;;;;;;7.05;83.70;99748.22;5569734;32;34230;-55
2022/11/21 15:01:26;;;;;;;18.45;15.05;;;;;;;7.19;93.51;99751.94;5569921;32;33657;-55
2022/11/21 15:04:32;;;;;;;24.25;17.85;;;;;;;7.19;84.21;99759.13;5569792;32;33911;-56
2022/11/21 15:07:40;;;;;;;66.95;51.67;;;;;;;7.03;84.87;99761.06;5569559;32;33338;-54
2022/11/21 15:10:42;;;;;;;44.28;32.88;;;;;;;6.90;85.57;99765.09;5569629;32;33790;-54
2022/11/21 15:13:49;;;;;;;30.45;23.85;;;;;;;6.98;94.87;99763.72;5569671;32;33700;-55
2022/11/21 15:17:17;;;;;;;42.62;27.90;;;;;;;6.95;82.87;99770.38;5569558;32;33189;-55
2022/11/21 15:20:20;;;;;;;37.53;28.92;;;;;;;6.79;91.31;99768.84;5569261;32;33602;-55
2022/11/21 15:23:26;;;;;;;101.07;73.03;;;;;;;6.86;90.66;99772.03;5569793;32;33815;-55
2022/11/21 15:26:31;;;;;;;87.60;54.70;;;;;;;6.91;83.50;99782.66;5569313;32;33565;-55
2022/11/21 15:29:33;;;;;;;44.35;31.10;;;;;;;6.89;85.72;99782.16;5568814;32;34378;-55
2022/11/21 15:32:58;;;;;;;21.10;15.02;;;;;;;6.83;84.91;99785.88;5568428;32;33899;-55
2022/11/21 15:36:12;;;;;;;20.00;14.50;;;;;;;6.85;84.45;99785.59;5566601;32;33358;-55
2022/11/21 15:39:21;;;;;;;19.12;13.32;;;;;;;6.98;86.14;99796.50;5566091;32;33866;-55
2022/11/21 15:42:32;;;;;;;20.55;13.10;;;;;;;7.04;87.61;99795.41;5567599;32;33185;-55
2022/11/21 15:45:34;;;;;;;20.37;13.43;;;;;;;7.10;86.63;99798.88;5569418;32;33485;-55
2022/11/21 15:48:36;;;;;;;26.55;20.08;;;;;;;7.07;87.94;99805.53;5568043;32;34259;-55
2022/11/21 15:51:42;;;;;;;19.12;14.48;;;;;;;7.10;91.31;99800.75;5568634;32;34275;-55
2022/11/21 15:55:12;;;;;;;18.05;13.88;;;;;;;7.12;85.00;99801.25;5568978;32;33742;-55
2022/11/21 15:58:15;;;;;;;20.48;13.82;;;;;;;7.14;92.45;99791.91;5569154;32;34409;-55
2022/11/21 16:01:23;;;;;;;31.02;14.40;;;;;;;7.12;88.30;99799.41;5569133;32;34376;-55
2022/11/21 16:04:26;;;;;;;19.35;13.90;;;;;;;7.20;87.72;99793.50;5569185;32;33694;-55
2022/11/21 16:07:28;;;;;;;20.40;13.18;;;;;;;7.12;85.11;99793.25;5569278;32;34360;-55
2022/11/21 16:10:30;;;;;;;21.60;15.30;;;;;;;6.97;85.27;99783.44;5569395;32;33813;-55
2022/11/21 16:13:35;;;;;;;25.52;19.52;;;;;;;7.35;100.00;99791.84;5567953;32;33387;-55
2022/11/21 16:16:40;;;;;;;58.13;41.75;;;;;;;7.54;96.28;99774.94;5569306;32;33708;-55
2022/11/21 16:19:44;;;;;;;;;;;;;;;7.77;100.00;99757.50;5569566;32;33781;-55
2022/11/21 16:22:46;;;;;;;31.37;25.45;;;;;;;7.64;85.97;99758.09;5569193;32;34708;-55
2022/11/21 16:25:52;;;;;;;23.55;17.60;;;;;;;7.50;91.63;99765.91;5567876;32;33777;-55
2022/11/21 16:28:56;;;;;;;24.35;17.37;;;;;;;7.39;84.47;99771.59;5569183;32;33682;-55
2022/11/21 16:31:58;;;;;;;23.58;17.48;;;;;;;7.06;88.82;99773.84;5569186;32;33623;-55
2022/11/21 16:35:00;;;;;;;21.33;14.77;;;;;;;6.88;86.70;99780.53;5569167;32;33738;-55
2022/11/21 16:38:07;;;;;;;22.45;15.85;;;;;;;6.95;85.25;99773.03;5569170;32;33879;-55
2022/11/21 16:41:10;;;;;;;;;;;;;;;6.81;93.82;99758.69;5569410;32;34192;-55
2022/11/21 16:44:14;;;;;;;38.15;31.10;;;;;;;6.77;90.13;99760.31;5568866;32;34200;-55
2022/11/21 16:47:16;;;;;;;60.28;48.45;;;;;;;6.84;90.64;99760.81;5568819;32;33733;-55
2022/11/21 16:50:18;;;;;;;35.20;27.08;;;;;;;7.10;96.63;99756.22;5568669;32;34446;-55
2022/11/21 16:53:20;;;;;;;25.27;18.95;;;;;;;7.03;86.07;99761.84;5568990;32;33763;-55
2022/11/21 16:56:23;;;;;;;22.80;16.80;;;;;;;6.88;84.70;99769.06;5568763;32;33979;-55
